createdAt,value
2019-04-27T00:00:28.483Z,2.00
2019-04-27T00:01:26.317Z,1.70
2019-04-27T00:02:26.658Z,2.00
2019-04-27T00:03:26.298Z,1.80
2019-04-27T00:04:26.282Z,1.60
2019-04-27T00:05:32.082Z,1.80
2019-04-27T00:06:27.255Z,1.50
2019-04-27T00:07:26.252Z,1.90
2019-04-27T00:08:28.477Z,1.70
2019-04-27T00:09:27.223Z,2.10
2019-04-27T00:10:28.560Z,1.60
2019-04-27T00:11:26.198Z,2.00
2019-04-27T00:12:26.564Z,2.40
2019-04-27T00:13:26.176Z,2.30
2019-04-27T00:14:26.208Z,2.30
2019-04-27T00:15:31.325Z,2.00
2019-04-27T00:16:27.191Z,2.10
2019-04-27T00:17:45.005Z,2.00
2019-04-27T00:18:27.119Z,2.20
2019-04-27T00:19:27.307Z,1.80
2019-04-27T00:20:27.105Z,2.10
2019-04-27T00:21:26.090Z,2.20
2019-04-27T00:22:26.116Z,2.00
2019-04-27T00:23:26.065Z,2.10
2019-04-27T00:24:26.055Z,2.10
2019-04-27T00:25:27.022Z,1.80
2019-04-27T00:26:26.030Z,1.90
2019-04-27T00:27:26.022Z,1.80
2019-04-27T00:28:26.050Z,1.80
2019-04-27T00:29:26.123Z,1.80
2019-04-27T00:30:25.984Z,2.00
2019-04-27T00:31:25.981Z,2.10
2019-04-27T00:32:25.963Z,2.10
2019-04-27T00:33:25.995Z,1.80
2019-04-27T00:34:25.943Z,2.00
2019-04-27T00:35:25.926Z,1.80
2019-04-27T00:36:25.917Z,2.40
2019-04-27T00:37:25.907Z,2.30
2019-04-27T00:38:25.893Z,1.90
2019-04-27T00:39:25.925Z,2.00
2019-04-27T00:40:25.871Z,1.80
2019-04-27T00:41:25.867Z,1.60
2019-04-27T00:42:25.848Z,2.00
2019-04-27T00:43:25.879Z,2.10
2019-04-27T00:44:25.824Z,1.90
2019-04-27T00:45:25.859Z,2.40
2019-04-27T00:46:25.846Z,1.80
2019-04-27T00:47:25.793Z,1.70
2019-04-27T00:48:25.783Z,2.00
2019-04-27T00:49:25.773Z,1.70
2019-04-27T00:50:25.815Z,1.90
2019-04-27T00:51:25.748Z,2.00
2019-04-27T00:52:25.737Z,2.00
2019-04-27T00:53:25.730Z,1.80
2019-04-27T00:54:25.714Z,2.00
2019-04-27T00:55:25.707Z,1.70
2019-04-27T00:56:25.736Z,1.90
2019-04-27T00:57:25.679Z,1.60
2019-04-27T00:58:25.734Z,2.00
2019-04-27T00:59:25.695Z,1.80
2019-04-27T01:00:25.651Z,1.70
2019-04-27T01:01:25.640Z,1.50
2019-04-27T01:02:25.624Z,1.80
2019-04-27T01:03:25.610Z,1.70
2019-04-27T01:04:25.601Z,1.90
2019-04-27T01:05:25.634Z,1.60
2019-04-27T01:06:25.577Z,2.00
2019-04-27T01:07:25.569Z,1.60
2019-04-27T01:08:25.555Z,1.90
2019-04-27T01:09:25.585Z,1.70
2019-04-27T01:10:25.532Z,1.80
2019-04-27T01:11:25.522Z,1.60
2019-04-27T01:12:25.510Z,1.80
2019-04-27T01:13:25.542Z,1.70
2019-04-27T01:14:25.490Z,1.80
2019-04-27T01:15:25.476Z,1.80
2019-04-27T01:16:25.465Z,1.70
2019-04-27T01:17:25.499Z,1.50
2019-04-27T01:18:25.443Z,1.90
2019-04-27T01:19:25.473Z,1.80
2019-04-27T01:20:25.425Z,1.70
2019-04-27T01:21:25.411Z,2.00
2019-04-27T01:22:25.397Z,1.70
2019-04-27T01:23:25.387Z,1.80
2019-04-27T01:24:25.375Z,1.70
2019-04-27T01:25:25.402Z,1.70
2019-04-27T01:26:25.356Z,1.60
2019-04-27T01:27:25.342Z,1.50
2019-04-27T01:28:25.331Z,1.70
2019-04-27T01:29:25.320Z,1.70
2019-04-27T01:30:25.353Z,1.60
2019-04-27T01:31:25.299Z,1.60
2019-04-27T01:32:25.297Z,1.60
2019-04-27T01:33:25.275Z,1.90
2019-04-27T01:34:25.263Z,1.60
2019-04-27T01:35:25.253Z,1.80
2019-04-27T01:36:25.287Z,1.50
2019-04-27T01:37:25.234Z,1.70
2019-04-27T01:38:25.266Z,1.60
2019-04-27T01:39:25.213Z,1.50
2019-04-27T01:40:25.197Z,1.40
2019-04-27T01:41:25.186Z,1.60
2019-04-27T01:42:25.214Z,1.60
2019-04-27T01:43:25.164Z,1.60
2019-04-27T01:44:25.155Z,1.70
2019-04-27T01:45:25.140Z,1.70
2019-04-27T01:46:25.130Z,1.50
2019-04-27T01:47:25.163Z,1.40
2019-04-27T01:48:25.868Z,1.50
2019-04-27T01:49:25.140Z,1.40
2019-04-27T01:50:25.094Z,1.40
2019-04-27T01:51:25.076Z,1.50
2019-04-27T01:52:25.112Z,1.30
2019-04-27T01:53:25.051Z,1.30
2019-04-27T01:54:25.047Z,1.70
2019-04-27T01:55:25.029Z,1.70
2019-04-27T01:56:25.022Z,1.40
2019-04-27T01:57:25.014Z,1.60
2019-04-27T01:58:25.036Z,1.70
2019-04-27T01:59:25.039Z,2.20
2019-04-27T02:00:24.979Z,1.90
2019-04-27T02:01:24.962Z,1.90
2019-04-27T02:02:24.951Z,1.80
2019-04-27T02:03:24.941Z,2.10
2019-04-27T02:04:24.971Z,1.80
2019-04-27T02:05:24.920Z,2.10
2019-04-27T02:06:24.906Z,2.00
2019-04-27T02:07:24.942Z,2.20
2019-04-27T02:08:24.884Z,2.20
2019-04-27T02:09:24.875Z,2.00
2019-04-27T02:10:24.863Z,2.30
2019-04-27T02:11:24.894Z,2.20
2019-04-27T02:12:24.842Z,1.90
2019-04-27T02:13:24.830Z,2.20
2019-04-27T02:14:24.818Z,2.60
2019-04-27T02:15:24.810Z,2.20
2019-04-27T02:16:24.844Z,2.60
2019-04-27T02:17:24.784Z,3.00
2019-04-27T02:18:34.814Z,2.60
2019-04-27T02:19:25.763Z,2.50
2019-04-27T02:20:24.750Z,2.20
2019-04-27T02:21:24.743Z,2.30
2019-04-27T02:22:24.768Z,2.60
2019-04-27T02:23:24.718Z,2.30
2019-04-27T02:24:24.753Z,2.20
2019-04-27T02:25:24.696Z,2.40
2019-04-27T02:26:24.686Z,2.00
2019-04-27T02:27:24.673Z,2.00
2019-04-27T02:28:24.662Z,2.30
2019-04-27T02:29:24.697Z,2.10
2019-04-27T02:30:24.641Z,2.00
2019-04-27T02:31:24.669Z,2.10
2019-04-27T02:32:24.628Z,2.00
2019-04-27T02:33:24.607Z,2.00
2019-04-27T02:34:24.596Z,2.50
2019-04-27T02:35:24.587Z,2.10
2019-04-27T02:36:24.618Z,2.40
2019-04-27T02:37:24.563Z,2.30
2019-04-27T02:38:24.553Z,2.40
2019-04-27T02:39:24.584Z,2.30
2019-04-27T02:40:24.582Z,2.30
2019-04-27T02:41:24.559Z,2.30
2019-04-27T02:42:24.511Z,2.40
2019-04-27T02:43:24.494Z,2.10
2019-04-27T02:44:24.492Z,2.40
2019-04-27T02:45:24.475Z,2.10
2019-04-27T02:46:24.504Z,2.20
2019-04-27T02:47:24.451Z,2.10
2019-04-27T02:48:24.438Z,2.40
2019-04-27T02:49:24.437Z,2.00
2019-04-27T02:50:24.418Z,2.60
2019-04-27T02:51:24.449Z,2.30
2019-04-27T02:52:24.400Z,2.40
2019-04-27T02:53:24.382Z,2.30
2019-04-27T02:54:24.371Z,2.20
2019-04-27T02:55:24.374Z,2.30
2019-04-27T02:56:24.352Z,2.30
2019-04-27T02:57:24.381Z,2.30
2019-04-27T02:58:24.343Z,2.50
2019-04-27T02:59:24.317Z,2.50
2019-04-27T03:00:24.304Z,2.40
2019-04-27T03:01:24.334Z,2.50
2019-04-27T03:02:24.290Z,2.70
2019-04-27T03:03:24.271Z,2.30
2019-04-27T03:04:24.264Z,2.50
2019-04-27T03:05:24.249Z,2.70
2019-04-27T03:06:24.240Z,2.50
2019-04-27T03:07:24.268Z,2.50
2019-04-27T03:08:24.217Z,2.30
2019-04-27T03:09:24.206Z,2.70
2019-04-27T03:10:24.193Z,2.60
2019-04-27T03:11:24.183Z,2.60
2019-04-27T03:12:24.210Z,2.90
2019-04-27T03:13:24.201Z,2.70
2019-04-27T03:14:32.570Z,2.20
2019-04-27T03:15:25.140Z,2.30
2019-04-27T03:16:24.128Z,2.30
2019-04-27T03:17:24.164Z,2.80
2019-04-27T03:18:24.107Z,2.40
2019-04-27T03:19:24.094Z,2.30
2019-04-27T03:20:24.087Z,2.50
2019-04-27T03:21:24.071Z,2.10
2019-04-27T03:22:24.089Z,2.10
2019-04-27T03:23:24.099Z,2.00
2019-04-27T03:24:24.039Z,2.40
2019-04-27T03:25:24.027Z,2.10
2019-04-27T03:26:24.016Z,2.10
2019-04-27T03:27:24.006Z,2.40
2019-04-27T03:28:23.999Z,1.80
2019-04-27T03:29:24.025Z,2.20
2019-04-27T03:30:24.053Z,2.20
2019-04-27T03:31:23.976Z,2.40
2019-04-27T03:32:23.951Z,2.10
2019-04-27T03:33:23.938Z,2.40
2019-04-27T03:34:23.928Z,2.10
2019-04-27T03:35:23.928Z,2.50
2019-04-27T03:36:23.957Z,1.90
2019-04-27T03:37:23.897Z,2.00
2019-04-27T03:38:23.883Z,2.20
2019-04-27T03:39:23.878Z,2.20
2019-04-27T03:40:23.903Z,2.20
2019-04-27T03:41:23.849Z,2.50
2019-04-27T03:42:23.839Z,2.80
2019-04-27T03:43:23.827Z,2.30
2019-04-27T03:44:23.816Z,2.70
2019-04-27T03:45:23.844Z,2.90
2019-04-27T03:46:23.799Z,2.70
2019-04-27T03:47:23.824Z,3.00
2019-04-27T03:48:23.772Z,2.50
2019-04-27T03:49:34.518Z,2.60
2019-04-27T03:50:24.749Z,2.60
2019-04-27T03:51:23.777Z,2.60
2019-04-27T03:52:23.730Z,2.70
2019-04-27T03:53:23.758Z,2.70
2019-04-27T03:54:23.704Z,2.60
2019-04-27T03:55:23.694Z,2.60
2019-04-27T03:56:23.688Z,2.30
2019-04-27T03:57:23.674Z,2.60
2019-04-27T03:58:23.710Z,2.20
2019-04-27T03:59:23.651Z,2.30
2019-04-27T04:00:23.638Z,2.70
2019-04-27T04:01:23.628Z,2.70
2019-04-27T04:02:23.617Z,2.50
2019-04-27T04:03:23.610Z,2.40
2019-04-27T04:04:23.636Z,2.50
2019-04-27T04:05:23.589Z,2.50
2019-04-27T04:06:23.572Z,2.40
2019-04-27T04:07:23.566Z,2.50
2019-04-27T04:08:23.594Z,2.30
2019-04-27T04:09:23.545Z,2.40
2019-04-27T04:10:23.530Z,2.20
2019-04-27T04:11:23.517Z,2.60
2019-04-27T04:12:23.547Z,2.50
2019-04-27T04:13:23.538Z,2.60
2019-04-27T04:14:23.485Z,2.60
2019-04-27T04:15:23.531Z,2.40
2019-04-27T04:16:23.461Z,2.60
2019-04-27T04:17:23.457Z,2.60
2019-04-27T04:18:23.440Z,2.40
2019-04-27T04:19:23.431Z,2.10
2019-04-27T04:20:23.418Z,2.40
2019-04-27T04:21:23.467Z,2.50
2019-04-27T04:22:23.397Z,2.40
2019-04-27T04:23:23.398Z,2.50
2019-04-27T04:24:23.375Z,2.60
2019-04-27T04:25:23.364Z,2.60
2019-04-27T04:26:23.350Z,2.50
2019-04-27T04:27:23.381Z,2.60
2019-04-27T04:28:23.367Z,2.50
2019-04-27T04:29:23.319Z,2.20
2019-04-27T04:30:23.311Z,2.40
2019-04-27T04:31:23.345Z,2.70
2019-04-27T04:32:23.283Z,2.50
2019-04-27T04:33:23.280Z,2.80
2019-04-27T04:34:23.263Z,2.30
2019-04-27T04:35:23.254Z,2.50
2019-04-27T04:36:23.257Z,2.30
2019-04-27T04:37:23.280Z,2.40
2019-04-27T04:38:23.221Z,2.30
2019-04-27T04:39:23.210Z,2.40
2019-04-27T04:40:23.394Z,2.20
2019-04-27T04:41:23.185Z,2.50
2019-04-27T04:42:23.173Z,2.10
2019-04-27T04:43:23.213Z,2.30
2019-04-27T04:44:23.194Z,2.80
2019-04-27T04:45:23.158Z,2.80
2019-04-27T04:46:23.283Z,2.40
2019-04-27T04:47:23.118Z,2.30
2019-04-27T04:48:23.111Z,2.50
2019-04-27T04:49:23.135Z,2.80
2019-04-27T04:50:23.087Z,2.40
2019-04-27T04:51:23.119Z,2.40
2019-04-27T04:52:23.066Z,2.60
2019-04-27T04:53:23.056Z,2.50
2019-04-27T04:54:24.769Z,2.30
2019-04-27T04:55:23.029Z,2.70
2019-04-27T04:56:23.017Z,2.30
2019-04-27T04:57:23.050Z,2.10
2019-04-27T04:58:22.998Z,2.50
2019-04-27T04:59:22.983Z,2.30
2019-04-27T05:00:22.972Z,2.30
2019-04-27T05:01:22.973Z,2.40
2019-04-27T05:02:22.960Z,2.40
2019-04-27T05:03:22.989Z,2.50
2019-04-27T05:04:22.933Z,2.50
2019-04-27T05:05:22.923Z,2.50
2019-04-27T05:06:25.446Z,2.20
2019-04-27T05:07:22.950Z,2.80
2019-04-27T05:08:22.884Z,2.60
2019-04-27T05:09:22.878Z,2.10
2019-04-27T05:10:22.870Z,2.60
2019-04-27T05:11:22.856Z,2.40
2019-04-27T05:12:22.849Z,2.30
2019-04-27T05:13:22.877Z,2.30
2019-04-27T05:14:22.833Z,2.40
2019-04-27T05:15:22.818Z,2.50
2019-04-27T05:16:22.795Z,2.40
2019-04-27T05:17:22.800Z,2.50
2019-04-27T05:18:22.828Z,2.60
2019-04-27T05:19:22.763Z,2.50
2019-04-27T05:20:26.272Z,2.70
2019-04-27T05:21:22.786Z,2.10
2019-04-27T05:22:22.738Z,2.20
2019-04-27T05:23:22.796Z,2.60
2019-04-27T05:24:22.715Z,2.60
2019-04-27T05:25:22.700Z,2.30
2019-04-27T05:26:22.685Z,2.40
2019-04-27T05:27:22.714Z,2.40
2019-04-27T05:28:22.677Z,2.30
2019-04-27T05:29:22.715Z,2.50
2019-04-27T05:30:22.642Z,2.40
2019-04-27T05:31:22.640Z,2.60
2019-04-27T05:32:22.616Z,2.60
2019-04-27T05:33:22.610Z,2.80
2019-04-27T05:34:22.608Z,2.60
2019-04-27T05:35:22.643Z,2.50
2019-04-27T05:36:22.576Z,2.50
2019-04-27T05:37:28.098Z,2.60
2019-04-27T05:38:23.603Z,2.90
2019-04-27T05:39:25.367Z,2.60
2019-04-27T05:40:22.534Z,2.80
2019-04-27T05:41:22.521Z,2.50
2019-04-27T05:42:22.515Z,2.50
2019-04-27T05:43:25.527Z,2.40
2019-04-27T05:44:23.539Z,2.40
2019-04-27T05:45:22.941Z,2.40
2019-04-27T05:46:22.472Z,2.80
2019-04-27T05:47:22.462Z,2.30
2019-04-27T05:48:27.624Z,2.40
2019-04-27T05:49:23.436Z,2.80
2019-04-27T05:50:35.263Z,2.50
2019-04-27T05:51:23.451Z,2.40
2019-04-27T05:52:22.400Z,2.40
2019-04-27T05:53:22.389Z,2.70
2019-04-27T05:54:22.379Z,2.90
2019-04-27T05:55:22.410Z,2.70
2019-04-27T05:56:22.352Z,2.70
2019-04-27T05:57:22.346Z,2.60
2019-04-27T05:58:22.330Z,2.60
2019-04-27T05:59:22.315Z,2.30
2019-04-27T06:00:22.313Z,2.40
2019-04-27T06:01:22.342Z,2.90
2019-04-27T06:02:23.675Z,2.60
2019-04-27T06:03:22.275Z,2.60
2019-04-27T06:04:22.274Z,2.30
2019-04-27T06:05:22.926Z,2.60
2019-04-27T06:06:22.283Z,2.40
2019-04-27T06:07:22.235Z,2.40
2019-04-27T06:08:22.219Z,2.40
2019-04-27T06:09:22.253Z,2.20
2019-04-27T06:10:22.258Z,2.80
2019-04-27T06:11:22.232Z,2.20
2019-04-27T06:12:22.185Z,2.50
2019-04-27T06:13:22.179Z,2.30
2019-04-27T06:14:22.214Z,2.60
2019-04-27T06:15:22.142Z,2.10
2019-04-27T06:16:22.134Z,2.70
2019-04-27T06:17:22.122Z,2.30
2019-04-27T06:18:22.110Z,2.60
2019-04-27T06:19:22.099Z,2.40
2019-04-27T06:20:22.172Z,2.50
2019-04-27T06:21:22.087Z,2.30
2019-04-27T06:22:22.063Z,2.60
2019-04-27T06:23:22.061Z,2.30
2019-04-27T06:24:22.059Z,2.50
2019-04-27T06:25:22.038Z,2.60
2019-04-27T06:26:22.074Z,2.60
2019-04-27T06:27:22.008Z,2.40
2019-04-27T06:28:22.002Z,2.40
2019-04-27T06:29:21.990Z,2.40
2019-04-27T06:30:21.992Z,2.60
2019-04-27T06:31:21.966Z,2.60
2019-04-27T06:32:22.005Z,2.50
2019-04-27T06:33:32.063Z,2.60
2019-04-27T06:34:22.975Z,2.30
2019-04-27T06:35:21.930Z,2.30
2019-04-27T06:36:21.909Z,2.50
2019-04-27T06:37:21.895Z,2.50
2019-04-27T06:38:21.890Z,2.20
2019-04-27T06:39:21.937Z,2.20
2019-04-27T06:40:21.879Z,2.20
2019-04-27T06:41:21.855Z,2.50
2019-04-27T06:42:21.852Z,2.20
2019-04-27T06:43:21.832Z,2.30
2019-04-27T06:44:21.820Z,2.20
2019-04-27T06:45:21.851Z,2.50
2019-04-27T06:46:21.791Z,2.50
2019-04-27T06:47:21.787Z,2.10
2019-04-27T06:48:21.815Z,2.20
2019-04-27T06:49:21.764Z,2.00
2019-04-27T06:50:21.757Z,2.10
2019-04-27T06:51:21.747Z,2.20
2019-04-27T06:52:21.780Z,2.10
2019-04-27T06:53:21.711Z,2.20
2019-04-27T06:54:21.723Z,2.10
2019-04-27T06:55:21.694Z,2.40
2019-04-27T06:56:21.741Z,1.90
2019-04-27T06:57:21.665Z,2.30
2019-04-27T06:58:21.674Z,2.00
2019-04-27T06:59:21.646Z,2.00
2019-04-27T07:00:21.685Z,2.30
2019-04-27T07:01:21.646Z,2.10
2019-04-27T07:02:21.612Z,2.00
2019-04-27T07:03:21.650Z,2.20
2019-04-27T07:04:21.601Z,2.00
2019-04-27T07:05:21.645Z,2.20
2019-04-27T07:06:21.575Z,2.40
2019-04-27T07:07:21.564Z,2.40
2019-04-27T07:08:21.611Z,2.30
2019-04-27T07:09:21.536Z,2.20
2019-04-27T07:10:21.527Z,2.20
2019-04-27T07:11:21.529Z,2.30
2019-04-27T07:12:21.514Z,2.40
2019-04-27T07:13:21.490Z,2.20
2019-04-27T07:14:21.524Z,2.20
2019-04-27T07:15:21.470Z,2.80
2019-04-27T07:16:21.460Z,2.70
2019-04-27T07:17:21.490Z,2.00
2019-04-27T07:18:21.448Z,2.00
2019-04-27T07:19:21.419Z,2.50
2019-04-27T07:20:21.407Z,2.50
2019-04-27T07:21:24.819Z,2.70
2019-04-27T07:22:21.424Z,2.70
2019-04-27T07:23:21.409Z,2.50
2019-04-27T07:24:21.415Z,2.40
2019-04-27T07:25:21.355Z,2.40
2019-04-27T07:26:21.366Z,2.60
2019-04-27T07:27:21.399Z,2.90
2019-04-27T07:28:21.323Z,2.50
2019-04-27T07:29:23.185Z,2.60
2019-04-27T07:30:21.297Z,2.60
2019-04-27T07:31:21.289Z,3.10
2019-04-27T07:32:21.275Z,2.90
2019-04-27T07:33:21.272Z,2.90
2019-04-27T07:34:21.247Z,3.70
2019-04-27T07:35:21.299Z,3.20
2019-04-27T07:36:21.228Z,3.40
2019-04-27T07:37:21.220Z,3.10
2019-04-27T07:38:21.208Z,3.10
2019-04-27T07:39:21.206Z,3.40
2019-04-27T07:40:21.222Z,3.70
2019-04-27T07:41:21.185Z,3.40
2019-04-27T07:42:21.959Z,3.50
2019-04-27T07:43:21.295Z,3.70
2019-04-27T07:44:21.152Z,3.40
2019-04-27T07:45:21.190Z,3.90
2019-04-27T07:46:21.158Z,4.10
2019-04-27T07:47:21.153Z,3.90
2019-04-27T07:48:21.095Z,4.50
2019-04-27T07:49:21.079Z,4.30
2019-04-27T07:50:21.117Z,4.10
2019-04-27T07:51:31.581Z,4.30
2019-04-27T07:52:22.046Z,4.80
2019-04-27T07:53:21.067Z,4.80
2019-04-27T07:54:21.035Z,4.90
2019-04-27T07:55:21.009Z,5.30
2019-04-27T07:56:21.046Z,4.60
2019-04-27T07:57:20.995Z,4.80
2019-04-27T07:58:22.249Z,4.30
2019-04-27T07:59:20.970Z,5.10
2019-04-27T08:00:20.956Z,4.90
2019-04-27T08:01:20.947Z,5.10
2019-04-27T08:02:20.975Z,4.90
2019-04-27T08:03:20.965Z,5.10
2019-04-27T08:04:20.912Z,5.80
2019-04-27T08:05:20.907Z,5.50
2019-04-27T08:06:20.910Z,5.10
2019-04-27T08:07:20.929Z,4.80
2019-04-27T08:08:20.879Z,4.90
2019-04-27T08:09:20.864Z,5.00
2019-04-27T08:10:20.842Z,5.60
2019-04-27T08:11:20.832Z,4.90
2019-04-27T08:12:21.097Z,5.20
2019-04-27T08:13:20.859Z,5.00
2019-04-27T08:14:20.810Z,5.20
2019-04-27T08:15:20.784Z,5.10
2019-04-27T08:16:20.815Z,5.10
2019-04-27T08:17:20.760Z,4.80
2019-04-27T08:18:20.746Z,4.80
2019-04-27T08:19:20.777Z,5.00
2019-04-27T08:20:21.258Z,5.20
2019-04-27T08:21:20.712Z,5.10
2019-04-27T08:22:20.704Z,5.00
2019-04-27T08:23:20.747Z,4.80
2019-04-27T08:24:20.679Z,5.50
2019-04-27T08:25:20.671Z,4.90
2019-04-27T08:26:20.658Z,4.90
2019-04-27T08:27:20.646Z,5.30
2019-04-27T08:28:20.632Z,5.10
2019-04-27T08:29:20.669Z,5.90
2019-04-27T08:30:20.668Z,5.50
2019-04-27T08:31:20.644Z,4.90
2019-04-27T08:32:20.600Z,5.40
2019-04-27T08:33:20.580Z,5.70
2019-04-27T08:34:20.628Z,5.10
2019-04-27T08:35:20.595Z,5.30
2019-04-27T08:36:20.562Z,4.90
2019-04-27T08:37:20.538Z,5.40
2019-04-27T08:38:20.727Z,4.70
2019-04-27T08:39:20.525Z,4.90
2019-04-27T08:40:20.545Z,5.30
2019-04-27T08:41:21.256Z,5.60
2019-04-27T08:42:20.478Z,6.00
2019-04-27T08:43:20.468Z,5.30
2019-04-27T08:44:20.455Z,5.30
2019-04-27T08:45:20.440Z,5.20
2019-04-27T08:46:20.477Z,5.80
2019-04-27T08:47:20.421Z,5.80
2019-04-27T08:48:33.353Z,5.40
2019-04-27T08:49:21.411Z,5.90
2019-04-27T08:50:20.986Z,5.60
2019-04-27T08:51:20.422Z,5.30
2019-04-27T08:52:20.420Z,5.30
2019-04-27T08:53:20.369Z,4.70
2019-04-27T08:54:20.347Z,5.00
2019-04-27T08:55:20.326Z,4.60
2019-04-27T08:56:20.319Z,4.10
2019-04-27T08:57:20.304Z,3.60
2019-04-27T08:58:21.275Z,3.40
2019-04-27T08:59:20.289Z,3.20
2019-04-27T09:00:20.299Z,3.50
2019-04-27T09:01:20.743Z,2.90
2019-04-27T09:02:20.359Z,2.80
2019-04-27T09:03:20.237Z,3.00
2019-04-27T09:04:20.273Z,2.80
2019-04-27T09:05:21.196Z,2.30
2019-04-27T09:06:20.206Z,1.90
2019-04-27T09:07:20.237Z,2.20
2019-04-27T09:08:20.179Z,2.40
2019-04-27T09:09:20.169Z,2.20
2019-04-27T09:10:20.214Z,1.90
2019-04-27T09:11:20.653Z,2.00
2019-04-27T09:12:20.135Z,1.90
2019-04-27T09:13:20.122Z,1.80
2019-04-27T09:14:20.159Z,2.10
2019-04-27T09:15:20.098Z,1.90
2019-04-27T09:16:20.092Z,1.80
2019-04-27T09:17:20.081Z,1.60
2019-04-27T09:18:20.061Z,1.90
2019-04-27T09:19:20.063Z,1.60
2019-04-27T09:20:20.089Z,1.90
2019-04-27T09:21:23.026Z,1.80
2019-04-27T09:22:22.415Z,1.80
2019-04-27T09:23:20.016Z,1.80
2019-04-27T09:24:19.994Z,1.70
2019-04-27T09:25:20.003Z,1.80
2019-04-27T09:26:20.015Z,1.70
2019-04-27T09:27:20.038Z,1.60
2019-04-27T09:28:21.798Z,1.60
2019-04-27T09:29:22.054Z,1.70
2019-04-27T09:30:20.158Z,1.50
2019-04-27T09:31:19.932Z,1.70
2019-04-27T09:32:19.951Z,1.60
2019-04-27T09:33:22.265Z,1.40
2019-04-27T09:34:19.889Z,1.40
2019-04-27T09:35:19.878Z,1.40
2019-04-27T09:36:19.863Z,1.40
2019-04-27T09:37:19.894Z,1.50
2019-04-27T09:38:19.840Z,1.50
2019-04-27T09:39:19.831Z,1.70
2019-04-27T09:40:19.817Z,1.60
2019-04-27T09:41:19.831Z,1.50
2019-04-27T09:42:19.793Z,1.40
2019-04-27T09:43:19.826Z,1.40
2019-04-27T09:44:19.776Z,1.00
2019-04-27T09:45:19.765Z,1.10
2019-04-27T09:46:19.761Z,1.00
2019-04-27T09:47:19.779Z,0.90
2019-04-27T09:48:19.738Z,0.80
2019-04-27T09:49:19.712Z,1.20
2019-04-27T09:50:19.705Z,0.90
2019-04-27T09:51:19.702Z,1.00
2019-04-27T09:52:26.264Z,0.90
2019-04-27T09:53:20.665Z,1.20
2019-04-27T09:54:19.655Z,0.80
2019-04-27T09:55:19.645Z,0.90
2019-04-27T09:56:19.635Z,0.90
2019-04-27T09:57:19.630Z,0.80
2019-04-27T09:58:19.785Z,0.90
2019-04-27T09:59:19.607Z,0.80
2019-04-27T10:00:19.600Z,0.80
2019-04-27T10:01:19.575Z,0.90
2019-04-27T10:02:19.612Z,0.90
2019-04-27T10:03:19.564Z,0.90
2019-04-27T10:04:19.542Z,0.90
2019-04-27T10:05:19.541Z,0.90
2019-04-27T10:06:19.529Z,0.60
2019-04-27T10:07:19.512Z,0.80
2019-04-27T10:08:19.543Z,0.70
2019-04-27T10:09:19.503Z,0.90
2019-04-27T10:10:19.519Z,0.90
2019-04-27T10:11:19.477Z,0.70
2019-04-27T10:12:19.471Z,0.90
2019-04-27T10:13:19.492Z,0.60
2019-04-27T10:14:19.510Z,0.70
2019-04-27T10:15:19.425Z,0.80
2019-04-27T10:16:19.416Z,0.90
2019-04-27T10:17:19.410Z,0.50
2019-04-27T10:18:19.467Z,0.80
2019-04-27T10:19:28.689Z,0.70
2019-04-27T10:20:20.409Z,0.70
2019-04-27T10:21:19.526Z,0.70
2019-04-27T10:22:19.382Z,0.70
2019-04-27T10:23:19.332Z,0.60
2019-04-27T10:24:19.374Z,0.60
2019-04-27T10:25:19.311Z,0.60
2019-04-27T10:26:19.294Z,0.70
2019-04-27T10:27:19.288Z,0.60
2019-04-27T10:28:19.282Z,0.70
2019-04-27T10:29:19.268Z,0.50
2019-04-27T10:30:19.289Z,0.50
2019-04-27T10:31:19.283Z,0.70
2019-04-27T10:32:19.233Z,0.80
2019-04-27T10:33:19.226Z,0.90
2019-04-27T10:34:19.210Z,0.90
2019-04-27T10:35:19.193Z,1.20
2019-04-27T10:36:19.190Z,0.90
2019-04-27T10:37:19.215Z,1.00
2019-04-27T10:38:19.205Z,1.20
2019-04-27T10:39:19.147Z,1.10
2019-04-27T10:40:19.141Z,1.50
2019-04-27T10:41:19.144Z,1.30
2019-04-27T10:42:19.178Z,1.20
2019-04-27T10:43:19.146Z,1.20
2019-04-27T10:44:19.096Z,1.30
2019-04-27T10:45:19.080Z,1.30
2019-04-27T10:46:19.075Z,1.70
2019-04-27T10:47:19.067Z,1.60
2019-04-27T10:48:19.052Z,1.70
2019-04-27T10:49:19.080Z,1.50
2019-04-27T10:50:19.029Z,1.60
2019-04-27T10:51:19.019Z,1.50
2019-04-27T10:52:19.024Z,1.70
2019-04-27T10:53:19.046Z,2.10
2019-04-27T10:54:19.025Z,2.00
2019-04-27T10:55:18.989Z,2.30
2019-04-27T10:56:19.004Z,2.00
2019-04-27T10:57:18.957Z,2.00
2019-04-27T10:58:18.952Z,1.90
2019-04-27T10:59:18.924Z,2.30
2019-04-27T11:00:18.940Z,2.20
2019-04-27T11:01:18.949Z,2.10
2019-04-27T11:02:18.906Z,2.50
2019-04-27T11:03:18.888Z,2.10
2019-04-27T11:04:18.888Z,1.60
2019-04-27T11:05:18.860Z,2.50
2019-04-27T11:06:18.848Z,2.80
2019-04-27T11:07:18.886Z,3.80
2019-04-27T11:08:18.827Z,4.70
2019-04-27T11:09:18.860Z,2.40
2019-04-27T11:10:18.819Z,2.70
2019-04-27T11:11:18.801Z,5.80
2019-04-27T11:12:18.784Z,4.80
2019-04-27T11:13:18.769Z,3.30
2019-04-27T11:14:18.764Z,3.00
2019-04-27T11:15:18.789Z,2.50
2019-04-27T11:16:18.781Z,2.40
2019-04-27T11:17:18.724Z,2.30
2019-04-27T11:18:18.718Z,2.20
2019-04-27T11:19:18.717Z,2.50
2019-04-27T11:20:18.738Z,2.50
2019-04-27T11:21:18.681Z,2.30
2019-04-27T11:22:18.683Z,2.30
2019-04-27T11:23:18.706Z,2.20
2019-04-27T11:24:18.651Z,2.30
2019-04-27T11:25:18.641Z,2.30
2019-04-27T11:26:18.628Z,2.10
2019-04-27T11:27:18.620Z,2.20
2019-04-27T11:28:18.644Z,1.80
2019-04-27T11:29:18.661Z,2.20
2019-04-27T11:30:18.602Z,2.60
2019-04-27T11:31:18.573Z,2.50
2019-04-27T11:32:18.557Z,2.10
2019-04-27T11:33:18.947Z,2.20
2019-04-27T11:34:18.540Z,2.00
2019-04-27T11:35:18.540Z,2.30
2019-04-27T11:36:18.525Z,2.30
2019-04-27T11:37:18.499Z,2.20
2019-04-27T11:38:18.493Z,2.60
2019-04-27T11:39:21.110Z,2.40
2019-04-27T11:40:18.523Z,2.10
2019-04-27T11:41:18.465Z,2.30
2019-04-27T11:42:18.451Z,2.20
2019-04-27T11:43:18.434Z,2.30
2019-04-27T11:44:18.421Z,2.10
2019-04-27T11:45:18.424Z,1.80
2019-04-27T11:46:18.456Z,2.50
2019-04-27T11:47:18.407Z,2.10
2019-04-27T11:48:18.425Z,2.30
2019-04-27T11:49:18.364Z,1.80
2019-04-27T11:50:18.356Z,2.10
2019-04-27T11:51:18.342Z,2.10
2019-04-27T11:52:18.345Z,2.30
2019-04-27T11:53:22.863Z,2.10
2019-04-27T11:54:18.323Z,1.90
2019-04-27T11:55:18.297Z,2.00
2019-04-27T11:56:18.340Z,2.30
2019-04-27T11:57:18.279Z,1.90
2019-04-27T11:58:18.277Z,2.40
2019-04-27T11:59:18.266Z,2.10
2019-04-27T12:00:18.293Z,2.00
2019-04-27T12:01:18.238Z,1.90
2019-04-27T12:02:18.223Z,2.40
2019-04-27T12:03:18.270Z,2.20
2019-04-27T12:04:18.207Z,2.30
2019-04-27T12:05:18.184Z,1.90
2019-04-27T12:06:18.184Z,2.10
2019-04-27T12:07:18.171Z,2.30
2019-04-27T12:08:18.154Z,2.10
2019-04-27T12:09:18.194Z,2.30
2019-04-27T12:10:18.126Z,1.60
2019-04-27T12:11:18.122Z,2.20
2019-04-27T12:12:21.713Z,2.20
2019-04-27T12:13:18.135Z,2.10
2019-04-27T12:14:18.080Z,2.80
2019-04-27T12:15:18.070Z,2.00
2019-04-27T12:16:18.072Z,2.10
2019-04-27T12:17:18.046Z,2.30
2019-04-27T12:18:18.077Z,2.40
2019-04-27T12:19:18.037Z,2.50
2019-04-27T12:20:18.134Z,2.10
2019-04-27T12:21:18.007Z,2.10
2019-04-27T12:22:17.997Z,2.80
2019-04-27T12:23:18.035Z,1.60
2019-04-27T12:24:18.019Z,1.90
2019-04-27T12:25:17.969Z,1.70
2019-04-27T12:26:17.945Z,1.70
2019-04-27T12:27:18.006Z,1.60
2019-04-27T12:28:17.939Z,1.50
2019-04-27T12:29:17.911Z,1.60
2019-04-27T12:30:17.910Z,1.50
2019-04-27T12:31:17.889Z,1.50
2019-04-27T12:32:17.874Z,1.70
2019-04-27T12:33:17.912Z,1.50
2019-04-27T12:34:17.854Z,1.70
2019-04-27T12:35:17.847Z,1.10
2019-04-27T12:36:17.830Z,1.00
2019-04-27T12:37:17.830Z,1.00
2019-04-27T12:38:17.860Z,1.00
2019-04-27T12:39:17.801Z,1.10
2019-04-27T12:40:17.808Z,0.90
2019-04-27T12:41:17.778Z,1.10
2019-04-27T12:42:17.827Z,1.00
2019-04-27T12:43:17.751Z,1.10
2019-04-27T12:44:17.757Z,1.10
2019-04-27T12:45:18.280Z,1.40
2019-04-27T12:46:17.717Z,1.20
2019-04-27T12:47:17.712Z,1.00
2019-04-27T12:48:17.757Z,0.90
2019-04-27T12:49:17.692Z,0.80
2019-04-27T12:50:17.677Z,0.90
2019-04-27T12:51:17.677Z,1.00
2019-04-27T12:52:17.699Z,1.50
2019-04-27T12:53:17.692Z,1.00
2019-04-27T12:54:17.643Z,1.10
2019-04-27T12:55:17.626Z,0.90
2019-04-27T12:56:17.631Z,0.80
2019-04-27T12:57:17.593Z,1.00
2019-04-27T12:58:17.589Z,1.10
2019-04-27T12:59:17.634Z,1.00
2019-04-27T13:00:17.559Z,1.00
2019-04-27T13:01:17.565Z,1.10
2019-04-27T13:02:17.544Z,0.90
2019-04-27T13:03:17.521Z,1.10
2019-04-27T13:04:17.522Z,1.10
2019-04-27T13:05:17.554Z,1.10
2019-04-27T13:06:17.506Z,0.90
2019-04-27T13:07:17.478Z,1.20
2019-04-27T13:08:17.475Z,1.10
2019-04-27T13:09:17.456Z,1.00
2019-04-27T13:10:17.474Z,1.10
2019-04-27T13:11:17.510Z,1.30
2019-04-27T13:12:17.424Z,1.40
2019-04-27T13:13:17.426Z,1.60
2019-04-27T13:14:17.405Z,1.20
2019-04-27T13:15:17.385Z,1.30
2019-04-27T13:16:17.378Z,1.20
2019-04-27T13:17:17.407Z,1.10
2019-04-27T13:18:17.358Z,1.40